Time;durP1;ratioP1;P1;durP2;ratioP2;P2;SDS_P1;SDS_P2;PMS_P1;PMS_P2;Temp;Humidity;BMP_temperature;BMP_pressure;BME280_temperature;BME280_humidity;BME280_pressure;Samples;Min_cycle;Max_cycle;Signal;HPM_P1;HPM_P2
2021/04/24 00:01:12;;;;;;;3.37;3.27;;;19.10;29.70;;;;;;5034576;28;20188;-72
2021/04/24 00:03:37;;;;;;;3.27;3.17;;;19.10;29.70;;;;;;5033136;28;20181;-72
2021/04/24 00:06:04;;;;;;;3.00;2.90;;;19.10;29.60;;;;;;5034116;28;20463;-72
2021/04/24 00:08:29;;;;;;;2.83;2.73;;;19.00;29.60;;;;;;5034109;28;20682;-72
2021/04/24 00:10:55;;;;;;;3.00;2.90;;;19.00;29.60;;;;;;5034309;28;20418;-71
2021/04/24 00:13:21;;;;;;;3.33;3.13;;;19.10;29.70;;;;;;5034295;28;20208;-71
2021/04/24 00:15:47;;;;;;;3.00;2.90;;;19.00;29.60;;;;;;5034061;28;20893;-72
2021/04/24 00:18:13;;;;;;;3.30;3.10;;;19.00;29.60;;;;;;5034022;28;20217;-72
2021/04/24 00:20:40;;;;;;;3.17;3.07;;;19.00;29.60;;;;;;5034019;28;20408;-72
2021/04/24 00:23:06;;;;;;;3.20;3.10;;;19.00;29.60;;;;;;5033941;28;20422;-72
2021/04/24 00:25:32;;;;;;;3.47;3.37;;;19.00;29.70;;;;;;5033925;28;20422;-72
2021/04/24 00:27:58;;;;;;;3.33;3.23;;;19.00;29.70;;;;;;5033132;28;20561;-72
2021/04/24 00:30:24;;;;;;;2.83;2.73;;;19.00;29.60;;;;;;5033999;28;20411;-72
2021/04/24 00:32:51;;;;;;;2.87;2.77;;;19.00;29.70;;;;;;5034111;28;20842;-72
2021/04/24 00:35:18;;;;;;;3.10;3.00;;;19.00;29.70;;;;;;5032587;28;20793;-72
2021/04/24 00:37:45;;;;;;;3.17;3.03;;;19.00;29.70;;;;;;5033774;28;20443;-72
2021/04/24 00:40:11;;;;;;;3.20;3.10;;;19.00;29.70;;;;;;5033812;28;20403;-72
2021/04/24 00:42:39;;;;;;;3.30;3.10;;;19.00;29.70;;;;;;5032379;28;20423;-72
2021/04/24 00:45:08;;;;;;;3.10;3.00;;;19.00;29.70;;;;;;5033343;28;20429;-72
2021/04/24 00:47:34;;;;;;;2.80;2.70;;;19.00;29.70;;;;;;5033398;28;20475;-71
2021/04/24 00:49:59;;;;;;;3.03;2.93;;;18.90;29.70;;;;;;5033502;28;20527;-72
2021/04/24 00:52:25;;;;;;;3.03;2.90;;;19.00;29.70;;;;;;5033506;28;20548;-72
2021/04/24 00:54:50;;;;;;;3.33;3.20;;;19.00;29.70;;;;;;5033437;28;20173;-72
2021/04/24 00:57:16;;;;;;;3.27;3.10;;;19.00;29.70;;;;;;5033056;28;20621;-72
2021/04/24 00:59:42;;;;;;;3.00;2.90;;;18.90;29.60;;;;;;5033281;28;20173;-72
2021/04/24 01:02:09;;;;;;;2.97;2.87;;;18.90;29.60;;;;;;5032109;28;20422;-72
2021/04/24 01:04:35;;;;;;;2.90;2.80;;;19.00;29.80;;;;;;5033073;28;20443;-71
2021/04/24 01:07:03;;;;;;;2.80;2.70;;;18.90;29.70;;;;;;5033005;28;20491;-72
2021/04/24 01:09:29;;;;;;;3.10;3.00;;;18.90;29.70;;;;;;5033072;28;20168;-72
2021/04/24 01:11:54;;;;;;;3.00;2.90;;;18.90;29.70;;;;;;5033371;28;20415;-73
2021/04/24 01:14:20;;;;;;;2.93;2.83;;;18.90;29.70;;;;;;5032921;28;20200;-73
2021/04/24 01:16:46;;;;;;;3.23;3.13;;;18.90;29.70;;;;;;5032818;28;20203;-72
2021/04/24 01:19:14;;;;;;;3.00;2.90;;;18.90;29.70;;;;;;5032902;28;20412;-72
2021/04/24 01:21:41;;;;;;;2.90;2.80;;;18.90;29.80;;;;;;5033099;28;20173;-72
2021/04/24 01:24:09;;;;;;;3.13;3.03;;;18.90;29.70;;;;;;5033011;28;20453;-72
2021/04/24 01:26:35;;;;;;;3.00;2.90;;;18.90;29.70;;;;;;5032624;28;20466;-73
2021/04/24 01:29:01;;;;;;;3.10;3.00;;;18.90;29.80;;;;;;5032846;28;20779;-72
2021/04/24 01:31:26;;;;;;;3.20;3.00;;;18.80;29.70;;;;;;5032835;28;20181;-72
2021/04/24 01:33:52;;;;;;;3.10;3.00;;;18.90;29.70;;;;;;5032729;28;20469;-72
2021/04/24 01:36:17;;;;;;;3.13;3.03;;;18.80;29.70;;;;;;5032318;28;20173;-71
2021/04/24 01:38:43;;;;;;;2.90;2.80;;;18.90;29.80;;;;;;5032112;28;20184;-72
2021/04/24 01:41:08;;;;;;;3.17;3.07;;;18.90;29.90;;;;;;5032120;28;20553;-72
2021/04/24 01:43:35;;;;;;;3.10;3.00;;;18.90;29.80;;;;;;5032525;28;20275;-72
2021/04/24 01:46:01;;;;;;;2.80;2.70;;;18.90;29.80;;;;;;5032379;28;20724;-72
2021/04/24 01:48:26;;;;;;;3.10;3.00;;;18.80;29.80;;;;;;5032251;28;20435;-72
2021/04/24 01:50:52;;;;;;;2.90;2.80;;;18.80;29.70;;;;;;5032438;28;20177;-72
2021/04/24 01:53:20;;;;;;;3.20;3.00;;;18.80;29.70;;;;;;5032235;28;20185;-72
2021/04/24 01:55:47;;;;;;;2.80;2.70;;;18.80;29.70;;;;;;5032233;28;20222;-72
2021/04/24 01:58:20;;;;;;;3.37;3.27;;;18.80;29.70;;;;;;5032175;28;20526;-72
2021/04/24 02:00:50;;;;;;;2.87;2.77;;;18.80;29.70;;;;;;5032219;28;20403;-72
2021/04/24 02:03:15;;;;;;;2.90;2.80;;;18.80;29.80;;;;;;5032316;28;20464;-72
2021/04/24 02:05:44;;;;;;;2.70;2.60;;;18.80;29.70;;;;;;5031956;28;20882;-72
2021/04/24 02:08:19;;;;;;;3.10;3.00;;;18.80;29.70;;;;;;5031959;28;20212;-72
2021/04/24 02:10:48;;;;;;;3.20;3.10;;;18.80;29.80;;;;;;5030914;28;20476;-72
2021/04/24 02:13:17;;;;;;;3.07;2.97;;;18.80;29.80;;;;;;5031909;28;20434;-72
2021/04/24 02:15:43;;;;;;;2.83;2.73;;;18.80;29.80;;;;;;5030484;28;20438;-72
2021/04/24 02:18:09;;;;;;;3.00;2.90;;;18.80;30.30;;;;;;5031877;28;20435;-72
2021/04/24 02:20:37;;;;;;;3.23;3.13;;;18.80;29.70;;;;;;5032025;28;20978;-72
2021/04/24 02:23:04;;;;;;;2.70;2.60;;;18.80;29.70;;;;;;5031834;28;20905;-72
2021/04/24 02:25:30;;;;;;;3.10;3.00;;;18.80;29.70;;;;;;5031676;28;20411;-73
2021/04/24 02:27:56;;;;;;;3.23;3.13;;;18.80;29.80;;;;;;5031676;28;20551;-72
2021/04/24 02:30:22;;;;;;;3.00;2.90;;;18.80;29.70;;;;;;5030608;28;20183;-72
2021/04/24 02:32:49;;;;;;;3.00;2.90;;;18.70;29.70;;;;;;5031745;28;20654;-72
2021/04/24 02:35:22;;;;;;;2.60;2.50;;;18.70;29.70;;;;;;5031538;28;20414;-72
2021/04/24 02:37:48;;;;;;;2.90;2.80;;;18.70;29.70;;;;;;5031886;28;20846;-71
2021/04/24 02:40:18;;;;;;;2.97;2.87;;;18.70;29.70;;;;;;5031741;28;20423;-72
2021/04/24 02:42:43;;;;;;;3.03;2.93;;;18.70;29.70;;;;;;5031706;28;20886;-72
2021/04/24 02:45:10;;;;;;;2.97;2.87;;;18.70;29.70;;;;;;5031559;28;20427;-72
2021/04/24 02:47:37;;;;;;;3.20;3.10;;;18.70;29.70;;;;;;5031399;28;20670;-72
2021/04/24 02:50:04;;;;;;;3.00;2.90;;;18.70;29.80;;;;;;5031731;28;20470;-72
2021/04/24 02:52:30;;;;;;;3.40;3.30;;;18.70;29.80;;;;;;5035446;28;20881;-72
2021/04/24 02:54:56;;;;;;;3.30;3.20;;;18.70;29.80;;;;;;5035660;28;20434;-72
2021/04/24 02:57:22;;;;;;;2.93;2.83;;;18.70;29.80;;;;;;5035376;28;20199;-73
2021/04/24 02:59:47;;;;;;;3.00;2.90;;;18.70;29.80;;;;;;5035503;28;20176;-73
2021/04/24 03:02:15;;;;;;;2.80;2.70;;;18.70;29.80;;;;;;5035462;28;20418;-72
2021/04/24 03:04:42;;;;;;;2.70;2.60;;;18.70;29.80;;;;;;5035396;28;20180;-72
2021/04/24 03:07:07;;;;;;;2.90;2.80;;;18.70;29.80;;;;;;5035289;28;20462;-73
2021/04/24 03:09:33;;;;;;;2.80;2.70;;;18.70;29.80;;;;;;5035236;28;20426;-72
2021/04/24 03:11:58;;;;;;;2.97;2.87;;;18.70;29.80;;;;;;5035423;28;20173;-72
2021/04/24 03:14:24;;;;;;;2.83;2.73;;;18.70;29.80;;;;;;5035196;28;20758;-72
2021/04/24 03:16:49;;;;;;;3.03;2.93;;;18.70;29.70;;;;;;5034887;28;20201;-73
2021/04/24 03:19:15;;;;;;;3.00;2.90;;;18.70;29.80;;;;;;5035245;28;20176;-72
2021/04/24 03:21:40;;;;;;;2.90;2.80;;;18.70;29.70;;;;;;5035202;28;20699;-73
2021/04/24 03:24:07;;;;;;;2.87;2.77;;;18.70;29.80;;;;;;5035167;28;20230;-73
2021/04/24 03:26:33;;;;;;;3.23;3.10;;;18.70;29.80;;;;;;5034879;28;20289;-73
2021/04/24 03:28:59;;;;;;;2.73;2.63;;;18.60;29.70;;;;;;5035076;28;20423;-72
2021/04/24 03:31:24;;;;;;;2.90;2.80;;;18.60;29.70;;;;;;5034982;28;20446;-72
2021/04/24 03:33:50;;;;;;;2.83;2.73;;;18.60;29.70;;;;;;5035008;28;20259;-72
2021/04/24 03:36:16;;;;;;;2.70;2.60;;;18.70;29.80;;;;;;5033476;28;20192;-72
2021/04/24 03:38:42;;;;;;;3.00;2.90;;;18.70;29.90;;;;;;5034659;28;20666;-72
2021/04/24 03:41:08;;;;;;;2.73;2.63;;;18.60;29.90;;;;;;5034918;28;20173;-73
2021/04/24 03:43:35;;;;;;;2.60;2.50;;;18.70;29.90;;;;;;5034573;28;20658;-72
2021/04/24 03:46:00;;;;;;;2.87;2.77;;;18.80;29.70;;;;;;5034350;28;20420;-73
2021/04/24 03:48:26;;;;;;;2.70;2.60;;;18.90;29.40;;;;;;5034553;28;20439;-72
2021/04/24 03:50:53;;;;;;;3.10;3.00;;;19.00;29.30;;;;;;5034808;28;20173;-71
2021/04/24 03:53:18;;;;;;;2.83;2.73;;;19.10;29.40;;;;;;5033187;28;20230;-72
2021/04/24 03:55:44;;;;;;;2.93;2.83;;;19.30;29.50;;;;;;5033185;28;20926;-72
2021/04/24 03:58:10;;;;;;;2.60;2.50;;;19.30;29.50;;;;;;5034434;28;20690;-73
2021/04/24 04:00:36;;;;;;;2.90;2.80;;;19.40;29.20;;;;;;5033342;28;20978;-73
2021/04/24 04:03:07;;;;;;;3.00;2.90;;;19.50;29.10;;;;;;5033344;28;20234;-73
2021/04/24 04:05:42;;;;;;;2.80;2.70;;;19.50;29.00;;;;;;5034386;28;20208;-72
2021/04/24 04:08:08;;;;;;;2.63;2.53;;;19.60;29.00;;;;;;5034315;28;20462;-73
2021/04/24 04:10:35;;;;;;;3.20;3.10;;;19.60;28.90;;;;;;5034364;28;20484;-73
2021/04/24 04:13:01;;;;;;;3.00;2.80;;;19.60;28.90;;;;;;5034144;28;20789;-72
2021/04/24 04:15:28;;;;;;;2.90;2.80;;;19.60;28.90;;;;;;5033851;28;20439;-73
2021/04/24 04:18:07;;;;;;;2.70;2.60;;;19.70;29.00;;;;;;5032660;28;20451;-73
2021/04/24 04:20:34;;;;;;;2.70;2.60;;;19.60;28.90;;;;;;5033994;28;20766;-73
2021/04/24 04:23:00;;;;;;;2.80;2.70;;;19.60;28.80;;;;;;5033939;28;20489;-73
2021/04/24 04:25:26;;;;;;;2.70;2.60;;;19.70;28.90;;;;;;5033828;28;20953;-73
2021/04/24 04:27:52;;;;;;;3.10;3.00;;;19.60;28.80;;;;;;5033825;28;21008;-73
2021/04/24 04:30:19;;;;;;;2.90;2.80;;;19.70;28.90;;;;;;5033982;28;20169;-73
2021/04/24 04:32:45;;;;;;;2.60;2.50;;;19.70;29.00;;;;;;5033745;28;20461;-73
2021/04/24 04:35:12;;;;;;;3.07;2.97;;;19.60;28.90;;;;;;5033557;28;20462;-71
2021/04/24 04:37:37;;;;;;;3.37;3.20;;;19.60;28.90;;;;;;5033574;28;20219;-70
2021/04/24 04:40:05;;;;;;;3.60;3.40;;;19.70;28.90;;;;;;5033613;28;20458;-72
2021/04/24 04:42:31;;;;;;;3.77;3.57;;;19.70;28.80;;;;;;5033643;28;20635;-71
2021/04/24 04:44:56;;;;;;;3.87;3.60;;;19.70;28.70;;;;;;5033307;28;20498;-69
2021/04/24 04:47:22;;;;;;;4.00;3.70;;;19.70;28.50;;;;;;5033285;28;20208;-72
2021/04/24 04:49:47;;;;;;;3.80;3.50;;;19.70;28.50;;;;;;5033469;28;20207;-71
2021/04/24 04:52:13;;;;;;;3.90;3.70;;;19.80;28.70;;;;;;5033529;28;20223;-71
2021/04/24 04:54:39;;;;;;;3.60;3.40;;;19.70;28.50;;;;;;5033238;28;20646;-71
2021/04/24 04:57:05;;;;;;;5.40;3.70;;;19.70;28.40;;;;;;5033158;28;20226;-71
2021/04/24 04:59:30;;;;;;;4.10;3.80;;;19.70;28.60;;;;;;5033179;28;20181;-72
2021/04/24 05:01:56;;;;;;;4.20;4.00;;;19.70;28.20;;;;;;5032024;28;20771;-71
2021/04/24 05:04:21;;;;;;;4.17;3.97;;;19.60;28.00;;;;;;5033266;28;20177;-72
2021/04/24 05:06:49;;;;;;;4.33;4.03;;;19.60;27.80;;;;;;5032801;28;20687;-71
2021/04/24 05:09:15;;;;;;;4.87;4.23;;;19.60;27.50;;;;;;5033295;28;20185;-70
2021/04/24 05:11:41;;;;;;;4.53;4.13;;;19.60;27.40;;;;;;5032457;28;20428;-71
2021/04/24 05:14:06;;;;;;;6.70;4.63;;;19.60;27.40;;;;;;5032747;28;20407;-71
2021/04/24 05:16:32;;;;;;;4.30;3.90;;;19.50;27.00;;;;;;5031669;28;20184;-71
2021/04/24 05:18:58;;;;;;;4.07;3.77;;;19.50;26.90;;;;;;5032965;28;20207;-71
2021/04/24 05:21:23;;;;;;;4.17;3.97;;;19.50;26.50;;;;;;5034186;28;20415;-71
2021/04/24 05:23:49;;;;;;;4.47;4.07;;;19.50;26.50;;;;;;5034548;28;20610;-70
2021/04/24 05:26:14;;;;;;;4.50;4.30;;;19.50;26.40;;;;;;5033931;28;20702;-71
2021/04/24 05:28:40;;;;;;;4.50;4.20;;;19.40;26.30;;;;;;5033411;28;20608;-71
2021/04/24 05:31:06;;;;;;;4.73;4.33;;;19.40;26.10;;;;;;5033321;28;20177;-71
2021/04/24 05:33:32;;;;;;;4.43;4.17;;;19.40;26.00;;;;;;5031938;28;20169;-71
2021/04/24 05:36:01;;;;;;;5.00;4.60;;;19.40;26.00;;;;;;5032896;28;20481;-71
2021/04/24 05:38:27;;;;;;;4.47;4.17;;;19.40;25.70;;;;;;5032529;28;20200;-71
2021/04/24 05:40:53;;;;;;;3.90;3.70;;;19.40;25.60;;;;;;5032890;28;20787;-71
2021/04/24 05:43:18;;;;;;;4.63;4.33;;;19.30;25.40;;;;;;5032490;28;20403;-71
2021/04/24 05:45:44;;;;;;;4.80;4.23;;;19.30;25.20;;;;;;5032197;28;20188;-71
2021/04/24 05:48:09;;;;;;;5.07;4.77;;;19.30;24.90;;;;;;5032456;28;20208;-72
2021/04/24 05:50:35;;;;;;;5.97;4.80;;;19.30;25.00;;;;;;5032434;28;20208;-71
2021/04/24 05:53:00;;;;;;;4.87;4.47;;;19.30;24.80;;;;;;5032300;28;20263;-71
2021/04/24 05:55:26;;;;;;;5.37;4.80;;;19.30;25.00;;;;;;5032125;28;20177;-71
2021/04/24 05:57:51;;;;;;;4.73;4.33;;;19.40;25.20;;;;;;5032143;28;20200;-71
2021/04/24 06:00:20;;;;;;;5.23;4.73;;;19.30;25.10;;;;;;5032294;28;20185;-71
2021/04/24 06:02:46;;;;;;;4.57;4.27;;;19.30;25.30;;;;;;5032098;28;20272;-71
2021/04/24 06:05:12;;;;;;;4.50;4.20;;;19.30;25.70;;;;;;5032165;28;20510;-71
2021/04/24 06:07:39;;;;;;;5.50;4.57;;;19.30;25.70;;;;;;5032136;28;20204;-72
2021/04/24 06:10:07;;;;;;;4.73;4.43;;;19.30;25.60;;;;;;5031987;28;20442;-72
2021/04/24 06:12:32;;;;;;;7.60;4.37;;;19.30;25.50;;;;;;5031978;28;20422;-71
2021/04/24 06:14:58;;;;;;;4.33;4.13;;;19.30;25.90;;;;;;5031730;28;20431;-73
2021/04/24 06:17:24;;;;;;;5.77;4.90;;;19.30;25.90;;;;;;5032147;28;20600;-73
2021/04/24 06:19:50;;;;;;;6.00;5.30;;;19.30;25.70;;;;;;5032008;28;20196;-73
2021/04/24 06:22:15;;;;;;;5.40;4.90;;;19.30;25.60;;;;;;5031856;28;20411;-72
2021/04/24 06:24:41;;;;;;;5.63;5.23;;;19.40;25.70;;;;;;5031449;28;20243;-71
2021/04/24 06:27:06;;;;;;;7.97;5.30;;;19.40;25.20;;;;;;5029666;28;20208;-73
2021/04/24 06:29:32;;;;;;;7.30;5.17;;;19.40;25.50;;;;;;5031795;28;20165;-73
2021/04/24 06:31:58;;;;;;;5.63;5.13;;;19.40;25.60;;;;;;5031868;28;20179;-72
2021/04/24 06:34:23;;;;;;;4.70;4.20;;;19.40;25.70;;;;;;5031814;28;20168;-72
2021/04/24 06:36:49;;;;;;;7.47;5.10;;;19.50;25.80;;;;;;5031481;28;20196;-73
2021/04/24 06:39:15;;;;;;;13.07;5.20;;;19.50;25.90;;;;;;5030500;28;20196;-73
2021/04/24 06:41:41;;;;;;;9.10;5.53;;;19.50;26.10;;;;;;5031900;28;20884;-73
2021/04/24 06:44:06;;;;;;;7.30;5.47;;;19.50;26.10;;;;;;5031651;28;20176;-73
2021/04/24 06:46:32;;;;;;;6.30;5.70;;;19.50;26.10;;;;;;5031457;28;20204;-72
2021/04/24 06:48:57;;;;;;;9.10;5.60;;;19.50;26.00;;;;;;5029733;28;20177;-74
2021/04/24 06:51:23;;;;;;;6.17;5.00;;;19.50;25.90;;;;;;5031665;28;20181;-74
2021/04/24 06:53:48;;;;;;;8.47;6.47;;;19.40;26.00;;;;;;5031478;28;20165;-73
2021/04/24 06:56:14;;;;;;;13.23;6.80;;;19.30;24.80;;;;;;5031357;28;20639;-74
2021/04/24 06:58:39;;;;;;;8.30;7.30;;;19.30;24.50;;;;;;5031488;28;20202;-73
2021/04/24 07:01:05;;;;;;;6.93;6.33;;;19.10;23.30;;;;;;5031599;28;20280;-73
2021/04/24 07:03:30;;;;;;;9.53;7.03;;;19.10;24.30;;;;;;5031531;28;20211;-73
2021/04/24 07:05:56;;;;;;;7.33;6.73;;;19.20;24.30;;;;;;5030059;28;20211;-74
2021/04/24 07:08:21;;;;;;;9.17;6.47;;;19.20;23.90;;;;;;5031396;28;20499;-74
2021/04/24 07:10:47;;;;;;;6.40;5.77;;;19.20;23.60;;;;;;5031378;28;20173;-76
2021/04/24 07:13:13;;;;;;;7.53;5.90;;;19.20;23.90;;;;;;5030079;28;20176;-73
2021/04/24 07:15:39;;;;;;;8.00;5.53;;;19.30;24.10;;;;;;5031099;28;20224;-74
2021/04/24 07:18:05;;;;;;;7.70;5.90;;;19.30;24.30;;;;;;5031230;28;20524;-74
2021/04/24 07:20:30;;;;;;;5.83;5.30;;;19.30;24.50;;;;;;5031561;28;20643;-72
2021/04/24 07:22:56;;;;;;;6.10;5.67;;;19.30;24.40;;;;;;5031360;28;20458;-75
2021/04/24 07:25:22;;;;;;;6.10;5.70;;;19.30;24.70;;;;;;5031061;28;20168;-75
2021/04/24 07:27:47;;;;;;;6.23;5.27;;;19.30;24.90;;;;;;5031037;28;20301;-75
2021/04/24 07:30:13;;;;;;;6.63;6.07;;;19.40;25.00;;;;;;5031137;28;20173;-74
2021/04/24 07:32:39;;;;;;;6.20;5.60;;;19.40;25.10;;;;;;5031284;28;20181;-73
2021/04/24 07:35:06;;;;;;;6.57;6.07;;;19.40;25.20;;;;;;5030952;28;20407;-71
2021/04/24 07:37:32;;;;;;;5.93;5.30;;;19.40;25.20;;;;;;5033379;28;20225;-72
2021/04/24 07:39:59;;;;;;;7.97;5.00;;;19.40;25.30;;;;;;5035539;28;20502;-73
2021/04/24 07:42:24;;;;;;;5.73;5.23;;;19.40;25.30;;;;;;5034976;28;20603;-74
2021/04/24 07:44:50;;;;;;;5.20;4.90;;;19.40;25.50;;;;;;5034687;28;20505;-76
2021/04/24 07:47:15;;;;;;;6.93;5.27;;;19.40;25.60;;;;;;5034639;28;20204;-75
2021/04/24 07:49:41;;;;;;;6.50;5.90;;;19.50;25.70;;;;;;5035102;28;20177;-76
2021/04/24 07:52:08;;;;;;;5.60;5.10;;;19.40;25.70;;;;;;5034686;28;20183;-75
2021/04/24 07:54:36;;;;;;;5.80;5.30;;;19.40;25.90;;;;;;5034552;28;20643;-74
2021/04/24 07:57:03;;;;;;;5.63;5.00;;;19.40;25.80;;;;;;5034083;28;20432;-74
2021/04/24 07:59:29;;;;;;;5.50;5.00;;;19.40;25.80;;;;;;5028483;28;20407;-71
2021/04/24 08:01:55;;;;;;;5.70;5.30;;;19.40;26.20;;;;;;5033160;28;20412;-71
2021/04/24 08:04:20;;;;;;;5.17;4.77;;;19.40;26.30;;;;;;5034431;28;20407;-71
2021/04/24 08:06:46;;;;;;;7.60;5.10;;;19.50;26.50;;;;;;5033948;28;20586;-72
2021/04/24 08:09:11;;;;;;;5.50;5.10;;;19.50;26.60;;;;;;5034160;28;20250;-71
2021/04/24 08:11:37;;;;;;;5.33;4.60;;;19.60;26.50;;;;;;5033704;28;20191;-72
2021/04/24 08:14:03;;;;;;;5.00;4.70;;;19.60;26.70;;;;;;5033988;28;20195;-73
2021/04/24 08:16:29;;;;;;;5.37;4.87;;;19.60;26.60;;;;;;5033526;28;20498;-72
2021/04/24 08:18:55;;;;;;;5.27;4.53;;;19.60;26.60;;;;;;5034052;28;20420;-70
2021/04/24 08:21:21;;;;;;;6.47;5.80;;;19.60;26.50;;;;;;5034084;28;20188;-73
2021/04/24 08:23:46;;;;;;;6.37;5.73;;;19.70;26.70;;;;;;5033791;28;20177;-77
2021/04/24 08:26:12;;;;;;;10.60;6.13;;;19.70;26.70;;;;;;5034006;28;20469;-72
2021/04/24 08:28:38;;;;;;;7.13;5.30;;;19.70;26.80;;;;;;5032864;28;20192;-72
2021/04/24 08:31:03;;;;;;;11.17;5.50;;;19.70;26.80;;;;;;5033751;28;20636;-72
2021/04/24 08:33:29;;;;;;;10.33;6.27;;;19.70;26.80;;;;;;5033761;28;20169;-73
2021/04/24 08:35:55;;;;;;;8.87;5.80;;;19.80;26.80;;;;;;5033474;28;20173;-73
2021/04/24 08:38:21;;;;;;;7.60;6.40;;;19.80;27.00;;;;;;5033480;28;20709;-74
2021/04/24 08:40:47;;;;;;;16.43;6.53;;;19.80;27.00;;;;;;5033558;28;20196;-73
2021/04/24 08:43:13;;;;;;;8.80;6.20;;;19.80;27.10;;;;;;5033661;28;20173;-74
2021/04/24 08:45:42;;;;;;;9.57;6.67;;;19.80;27.00;;;;;;5033385;28;20411;-74
2021/04/24 08:48:08;;;;;;;7.73;6.07;;;19.80;27.00;;;;;;5033174;28;21037;-73
2021/04/24 08:50:35;;;;;;;7.50;5.40;;;19.90;27.10;;;;;;5033484;28;20495;-74
2021/04/24 08:53:02;;;;;;;6.57;5.40;;;19.90;27.20;;;;;;5033037;28;20221;-73
2021/04/24 08:55:31;;;;;;;6.13;5.63;;;19.90;27.20;;;;;;5031673;28;20423;-73
2021/04/24 08:57:56;;;;;;;7.60;5.63;;;19.90;27.30;;;;;;5033151;28;20458;-73
2021/04/24 09:00:26;;;;;;;10.57;6.53;;;19.90;27.30;;;;;;5032976;28;20474;-71
2021/04/24 09:02:52;;;;;;;7.03;5.47;;;19.90;27.30;;;;;;5033397;28;20666;-73
2021/04/24 09:05:19;;;;;;;5.57;5.03;;;20.00;27.30;;;;;;5032966;28;20412;-74
2021/04/24 09:07:45;;;;;;;10.10;5.63;;;19.90;27.30;;;;;;5032761;28;20212;-73
2021/04/24 09:10:14;;;;;;;6.03;5.43;;;20.00;27.40;;;;;;5031821;28;20423;-74
2021/04/24 09:12:41;;;;;;;10.27;6.20;;;20.00;27.50;;;;;;5033047;28;20908;-74
2021/04/24 09:15:15;;;;;;;5.97;5.37;;;20.00;27.50;;;;;;5032323;28;20419;-73
2021/04/24 09:18:12;;;;;;;8.40;5.63;;;20.00;27.50;;;;;;5033038;28;20517;-74
2021/04/24 09:21:03;;;;;;;6.53;5.50;;;20.00;27.40;;;;;;5036389;28;20427;-74
2021/04/24 09:23:36;;;;;;;6.10;5.50;;;20.00;27.40;;;;;;5031831;28;20416;-73
2021/04/24 09:26:10;;;;;;;5.90;5.30;;;20.00;27.40;;;;;;5031731;28;20420;-73
2021/04/24 09:28:45;;;;;;;5.93;5.33;;;20.00;27.50;;;;;;5032343;28;20849;-74
2021/04/24 09:31:18;;;;;;;6.03;5.17;;;20.00;27.60;;;;;;5032724;28;20437;-74
2021/04/24 09:33:45;;;;;;;5.67;5.07;;;20.10;27.70;;;;;;5032894;28;20937;-75
2021/04/24 09:36:12;;;;;;;6.37;5.77;;;20.00;27.40;;;;;;5031622;28;20446;-74
2021/04/24 09:38:43;;;;;;;6.07;5.50;;;20.00;27.50;;;;;;5031297;28;20427;-75
2021/04/24 09:41:28;;;;;;;5.73;5.23;;;20.10;27.50;;;;;;5032268;28;20408;-75
2021/04/24 09:44:00;;;;;;;5.80;5.30;;;20.10;27.40;;;;;;5032461;28;20400;-75
2021/04/24 09:46:58;;;;;;;5.50;5.00;;;20.10;27.40;;;;;;5030978;28;20459;-75
2021/04/24 09:49:30;;;;;;;4.80;4.40;;;20.10;27.50;;;;;;5034768;28;20495;-75
2021/04/24 09:52:00;;;;;;;5.57;5.03;;;20.10;27.40;;;;;;5032386;28;20755;-75
2021/04/24 09:54:31;;;;;;;5.53;5.03;;;20.10;27.50;;;;;;5032200;28;20414;-75
2021/04/24 09:57:11;;;;;;;5.70;4.90;;;20.10;27.40;;;;;;5031996;28;20925;-75
2021/04/24 09:59:56;;;;;;;6.57;4.90;;;20.10;27.40;;;;;;5031991;28;20415;-75
2021/04/24 10:02:33;;;;;;;5.60;5.07;;;20.10;27.40;;;;;;5031818;28;20414;-75
2021/04/24 10:05:25;;;;;;;4.73;4.43;;;20.10;27.50;;;;;;5031808;28;20980;-74
2021/04/24 10:07:53;;;;;;;4.80;4.40;;;20.10;27.50;;;;;;5030647;28;20889;-75
2021/04/24 10:10:31;;;;;;;5.83;4.60;;;20.10;27.50;;;;;;5032009;28;20809;-75
2021/04/24 10:12:58;;;;;;;6.17;5.57;;;20.10;27.60;;;;;;5032098;28;20410;-75
2021/04/24 10:15:44;;;;;;;5.00;4.53;;;20.10;27.70;;;;;;5031651;28;20451;-75
2021/04/24 10:18:15;;;;;;;7.23;4.97;;;20.20;27.90;;;;;;5032005;28;20895;-75
2021/04/24 10:20:45;;;;;;;8.83;4.87;;;20.20;28.20;;;;;;5031910;28;20419;-76
2021/04/24 10:23:13;;;;;;;5.20;4.70;;;20.20;28.10;;;;;;5027393;28;20436;-75
2021/04/24 10:25:40;;;;;;;5.23;4.70;;;20.20;28.10;;;;;;5011816;28;20954;-75
2021/04/24 10:28:06;;;;;;;7.03;4.50;;;20.20;28.00;;;;;;5036409;28;20474;-76
2021/04/24 10:30:31;;;;;;;8.60;5.20;;;20.20;28.00;;;;;;5051509;28;20473;-74
2021/04/24 10:32:57;;;;;;;5.23;4.73;;;20.20;28.00;;;;;;5051860;28;20172;-74
2021/04/24 10:35:27;;;;;;;4.93;4.63;;;20.20;28.20;;;;;;5051296;28;20168;-74
2021/04/24 10:37:53;;;;;;;5.00;4.50;;;20.20;28.10;;;;;;5051623;28;20426;-74
2021/04/24 10:40:19;;;;;;;10.97;5.00;;;20.20;28.30;;;;;;5051603;28;20852;-72
2021/04/24 10:42:51;;;;;;;6.20;4.80;;;20.30;28.20;;;;;;5051681;28;20426;-74
2021/04/24 10:45:30;;;;;;;7.03;4.53;;;20.30;28.20;;;;;;5051340;28;20446;-74
2021/04/24 10:47:56;;;;;;;5.30;4.50;;;20.30;28.20;;;;;;5050208;28;20568;-73
2021/04/24 10:50:43;;;;;;;7.73;5.30;;;20.30;28.30;;;;;;5051566;28;20456;-74
2021/04/24 10:53:29;;;;;;;5.73;4.80;;;20.30;28.30;;;;;;5051462;28;20410;-74
2021/04/24 10:55:59;;;;;;;6.83;5.40;;;20.30;28.40;;;;;;5050123;28;20509;-74
2021/04/24 10:58:27;;;;;;;5.07;4.57;;;20.30;28.20;;;;;;5051320;28;21057;-74
2021/04/24 11:00:58;;;;;;;5.60;5.10;;;20.30;28.30;;;;;;5051415;28;20427;-74
2021/04/24 11:03:41;;;;;;;6.00;5.50;;;20.40;28.50;;;;;;5051366;28;20402;-74
2021/04/24 11:06:15;;;;;;;5.50;4.50;;;20.40;28.50;;;;;;5051253;28;20415;-75
2021/04/24 11:08:42;;;;;;;7.07;5.43;;;20.30;28.10;;;;;;5051259;28;20469;-74
2021/04/24 11:11:24;;;;;;;5.43;4.33;;;20.30;28.20;;;;;;5051468;28;20407;-74
2021/04/24 11:13:55;;;;;;;5.07;4.67;;;20.30;28.20;;;;;;5055440;28;20445;-72
2021/04/24 11:16:23;;;;;;;12.90;5.63;;;20.30;28.40;;;;;;5055028;28;20424;-73
2021/04/24 11:18:50;;;;;;;6.40;5.70;;;20.30;28.40;;;;;;5055292;28;20501;-73
2021/04/24 11:21:23;;;;;;;5.53;5.10;;;20.30;28.50;;;;;;5055385;28;20766;-75
2021/04/24 11:23:58;;;;;;;5.03;4.57;;;20.30;28.50;;;;;;5055171;28;20489;-73
2021/04/24 11:26:45;;;;;;;5.70;5.07;;;20.30;28.50;;;;;;5055007;28;20820;-73
2021/04/24 11:29:33;;;;;;;5.30;4.90;;;20.30;28.50;;;;;;5055183;28;20432;-72
2021/04/24 11:32:06;;;;;;;5.83;5.27;;;20.30;28.30;;;;;;5055322;28;20840;-73
2021/04/24 11:34:44;;;;;;;8.23;4.90;;;20.30;28.40;;;;;;5054888;28;20410;-73
2021/04/24 11:37:15;;;;;;;6.13;5.53;;;20.30;28.40;;;;;;5054572;28;20491;-72
2021/04/24 11:40:11;;;;;;;6.20;5.60;;;20.30;28.30;;;;;;5054912;28;20510;-72
2021/04/24 11:42:49;;;;;;;7.43;5.93;;;20.30;28.40;;;;;;5054814;28;20402;-73
2021/04/24 11:45:33;;;;;;;6.70;5.87;;;20.30;28.30;;;;;;5054601;28;20398;-73
2021/04/24 11:47:59;;;;;;;6.93;6.07;;;20.30;28.30;;;;;;5054591;28;20487;-73
2021/04/24 11:50:37;;;;;;;7.87;5.87;;;20.30;28.50;;;;;;5054341;28;20411;-74
2021/04/24 11:53:03;;;;;;;17.73;6.13;;;20.30;28.30;;;;;;5054646;28;20179;-74
2021/04/24 11:55:28;;;;;;;11.40;6.20;;;20.30;28.30;;;;;;5054321;28;20406;-74
2021/04/24 11:58:12;;;;;;;8.93;6.37;;;20.30;28.40;;;;;;5054535;28;20204;-73
2021/04/24 12:00:38;;;;;;;9.40;5.67;;;20.30;28.40;;;;;;5054440;28;20187;-74
2021/04/24 12:03:05;;;;;;;8.90;6.20;;;20.30;28.40;;;;;;5054472;28;20426;-74
2021/04/24 12:05:31;;;;;;;6.37;5.40;;;20.30;28.30;;;;;;5054272;28;20452;-74
2021/04/24 12:07:57;;;;;;;6.30;5.90;;;20.30;28.30;;;;;;5054427;28;20466;-74
2021/04/24 12:10:28;;;;;;;6.47;5.13;;;20.30;28.40;;;;;;5054393;28;20410;-73
2021/04/24 12:13:09;;;;;;;11.73;6.20;;;20.30;28.30;;;;;;5054441;28;20722;-74
2021/04/24 12:15:34;;;;;;;7.50;5.40;;;20.30;28.30;;;;;;5051142;28;20430;-74
2021/04/24 12:18:03;;;;;;;6.17;5.57;;;20.30;28.40;;;;;;5016267;28;20455;-74
2021/04/24 12:20:39;;;;;;;6.37;5.80;;;20.30;28.30;;;;;;5034261;28;20235;-75
2021/04/24 12:23:10;;;;;;;7.07;5.50;;;20.30;28.30;;;;;;5028294;28;20474;-75
2021/04/24 12:25:39;;;;;;;6.97;5.43;;;20.30;28.40;;;;;;5021374;28;20454;-75
2021/04/24 12:28:09;;;;;;;8.40;5.40;;;20.20;28.30;;;;;;5053679;28;20880;-75
2021/04/24 12:30:46;;;;;;;6.50;4.97;;;20.20;28.40;;;;;;5053625;28;20417;-76
2021/04/24 12:33:22;;;;;;;6.77;4.93;;;20.20;28.40;;;;;;5052922;28;21026;-75
2021/04/24 12:35:56;;;;;;;7.50;5.73;;;20.20;28.30;;;;;;5054061;28;20430;-76
2021/04/24 12:38:29;;;;;;;6.40;5.20;;;20.20;28.30;;;;;;5054391;28;20436;-74
2021/04/24 12:41:04;;;;;;;6.37;5.20;;;20.20;28.40;;;;;;5054021;28;20455;-74
2021/04/24 12:43:32;;;;;;;9.03;5.80;;;20.20;28.90;;;;;;5014298;28;20457;-73
2021/04/24 12:46:01;;;;;;;6.43;4.73;;;20.20;28.40;;;;;;5012549;28;20421;-74
2021/04/24 12:48:35;;;;;;;5.83;5.23;;;20.20;28.20;;;;;;5012528;28;21001;-74
2021/04/24 12:51:02;;;;;;;6.33;5.77;;;20.20;28.30;;;;;;5014006;28;20405;-75